Farber, Missouri
Current Conditions -  °F | °C
As of 12:35 PM on Monday 20 Oct 2014 (Local Time) from KHAE Reporting Station
Clear Clear  
Wind Chill: 70°   Ceiling: Unl
Heat Index: 70°   Visibility: 10mi
Dew Point: 37°   Wind: 9mph
Humidity: 31%   Direction: 320°NW
Pressure: 30"   Gusts: NA
Location:  39.27°N, 91.57°W
Report Text: KHAE 201735Z AUTO 32008KT 10SM CLR 21/03 A3000 RMK AO2
Loading
Personal Weather Stations






























Interactive Weather Map New forecast layout! Learn more

10-Day Weather Forecast

Advertisements
Track Severe Weather on mobile